Torreon International Airport
MMTC : rendu visible

Aérodrome :











RETROUVEZ-NOUS SUR...

 
LOGIN :

S'inscrire | Disclaimer

   EN    FR    IT 

 









Légende :    VFR   VFR Marginal   IFR   IFR Intensif   IFR Très Intensif
Visi : 
Plafond : 
>= 8 km
>= 3000ft
5 à 8 km
1000 à 3000 ft
1500m à 5 km
500 à 1000 ft
800 à 1500m
200 à 500 ft
< 800m
< 200 ft
Symboles :   Orages  Brouillard  Fortes neiges  Fortes précipitations  Vent > 20 kt






- Altitude de l'aérodrome : 3688 ft
- Code IATA : TRC


MMTC - Torreon International

DERNIER METAR :
  • 140042Z 14002KT 8SM SKC 21/03 A3009

METARs EXPIRÉS :
  • 132351Z 14003KT 8SM SKC 23/03 A3008 RMK SLP137 56020 972
  • 132242Z 13002KT 7SM SKC 25/03 A3009
  • 132146Z 00000KT 7SM SKC 25/04 A3010

TAF TAF MMTC
Valide du 13 à 18h jusqu'au 14 à 18h UTC


131714Z 1318/1418 06005KT P6SM SKC
FM140600 00000KT P6SM SKC



MET'MAP, la Météo Aéronautique d'un coup d'oeil ! - Copyright ORBIFLY Décembre 2007 - Disclaimer

ORBIFLY MET'MAP TEAM :

Programmation & Développement : Alexandra Zaïnal
Sur une idée originale de : Baudouin d'Aumeries
Assistance à la programmation : Marc-Olivier Méhu
Soutien technique & logistique : Manuel Goepfert

Contact : metmap@orbifly.com




SOURCES & CREDITS :

   NOAA       Earth
Advisory